Terminal Aerodrome Forecast
Issued by NWS

Home | Current Version | Previous Version | Text Only | Print | Product List | Glossary On
Versions: 1 2 3 4 5 6 7 8 9 10 11 12 13 14 15 16
000
FTUS43 KMQT 311100
TAFCMX
TAF
KCMX 311136Z 3112/0112 01014G23KT P6SM -SHSN OVC030
      TEMPO 3112/3114 4SM -SHSN
     FM312000 34011KT P6SM BKN035
     FM010100 VRB03KT P6SM SKC=

USA.gov is the U.S. government's official web portal to all federal, state and local government web resources and services.